sensor_id;sensor_type;location;lat;lon;timestamp;temperature;humidity
52058;DHT22;38063;53.210;6.504;2022-10-13T00:01:43;9.10;99.90
52058;DHT22;38063;53.210;6.504;2022-10-13T00:04:09;9.10;99.90
52058;DHT22;38063;53.210;6.504;2022-10-13T00:06:34;9.10;99.90
52058;DHT22;38063;53.210;6.504;2022-10-13T00:09:00;9.10;99.90
52058;DHT22;38063;53.210;6.504;2022-10-13T00:11:27;9.10;99.90
52058;DHT22;38063;53.210;6.504;2022-10-13T00:13:58;9.10;99.90
52058;DHT22;38063;53.210;6.504;2022-10-13T00:16:25;9.10;99.90
52058;DHT22;38063;53.210;6.504;2022-10-13T00:18:51;9.10;99.90
52058;DHT22;38063;53.210;6.504;2022-10-13T00:21:19;9.40;99.90
52058;DHT22;38063;53.210;6.504;2022-10-13T00:23:45;9.20;99.90
52058;DHT22;38063;53.210;6.504;2022-10-13T00:26:13;9.20;99.90
52058;DHT22;38063;53.210;6.504;2022-10-13T00:28:40;9.20;99.90
52058;DHT22;38063;53.210;6.504;2022-10-13T00:31:21;9.20;99.90
52058;DHT22;38063;53.210;6.504;2022-10-13T00:33:47;9.20;99.90
52058;DHT22;38063;53.210;6.504;2022-10-13T00:36:14;9.20;99.90
52058;DHT22;38063;53.210;6.504;2022-10-13T00:38:39;9.20;99.90
52058;DHT22;38063;53.210;6.504;2022-10-13T00:41:05;9.20;99.90
52058;DHT22;38063;53.210;6.504;2022-10-13T00:43:52;9.20;99.90
52058;DHT22;38063;53.210;6.504;2022-10-13T00:46:19;9.50;99.90
52058;DHT22;38063;53.210;6.504;2022-10-13T00:48:45;9.20;99.90
52058;DHT22;38063;53.210;6.504;2022-10-13T00:51:14;9.20;99.90
52058;DHT22;38063;53.210;6.504;2022-10-13T00:53:41;9.20;99.90
52058;DHT22;38063;53.210;6.504;2022-10-13T00:56:09;9.20;99.90
52058;DHT22;38063;53.210;6.504;2022-10-13T00:58:36;9.20;99.90
52058;DHT22;38063;53.210;6.504;2022-10-13T01:01:04;9.30;99.90
52058;DHT22;38063;53.210;6.504;2022-10-13T01:03:30;9.30;99.90
52058;DHT22;38063;53.210;6.504;2022-10-13T01:05:58;9.20;99.90
52058;DHT22;38063;53.210;6.504;2022-10-13T01:08:24;9.20;99.90
52058;DHT22;38063;53.210;6.504;2022-10-13T01:13:59;9.20;99.90
52058;DHT22;38063;53.210;6.504;2022-10-13T01:21:41;9.30;99.90
52058;DHT22;38063;53.210;6.504;2022-10-13T01:37:48;9.30;99.90
52058;DHT22;38063;53.210;6.504;2022-10-13T01:40:23;9.30;99.90
52058;DHT22;38063;53.210;6.504;2022-10-13T01:43:16;9.30;99.90
52058;DHT22;38063;53.210;6.504;2022-10-13T01:45:50;9.30;99.90
52058;DHT22;38063;53.210;6.504;2022-10-13T01:48:18;9.30;99.90
52058;DHT22;38063;53.210;6.504;2022-10-13T01:50:44;9.30;99.90
52058;DHT22;38063;53.210;6.504;2022-10-13T01:53:12;9.30;99.90
52058;DHT22;38063;53.210;6.504;2022-10-13T01:55:48;9.40;99.90
52058;DHT22;38063;53.210;6.504;2022-10-13T01:58:14;9.40;99.90
52058;DHT22;38063;53.210;6.504;2022-10-13T02:00:43;9.40;99.90
52058;DHT22;38063;53.210;6.504;2022-10-13T02:03:16;9.40;99.90
52058;DHT22;38063;53.210;6.504;2022-10-13T02:06:14;9.40;99.90
52058;DHT22;38063;53.210;6.504;2022-10-13T02:08:57;9.30;99.90
52058;DHT22;38063;53.210;6.504;2022-10-13T02:11:24;9.40;99.90
52058;DHT22;38063;53.210;6.504;2022-10-13T02:14:27;9.40;99.90
52058;DHT22;38063;53.210;6.504;2022-10-13T02:16:55;9.40;99.90
52058;DHT22;38063;53.210;6.504;2022-10-13T02:19:22;9.40;99.90
52058;DHT22;38063;53.210;6.504;2022-10-13T02:21:48;9.40;99.90
52058;DHT22;38063;53.210;6.504;2022-10-13T02:24:14;9.40;99.90
52058;DHT22;38063;53.210;6.504;2022-10-13T02:26:40;9.40;99.90
52058;DHT22;38063;53.210;6.504;2022-10-13T02:29:11;9.30;99.90
52058;DHT22;38063;53.210;6.504;2022-10-13T02:31:38;9.30;99.90
52058;DHT22;38063;53.210;6.504;2022-10-13T02:34:04;9.60;99.90
52058;DHT22;38063;53.210;6.504;2022-10-13T02:36:30;9.30;99.90
52058;DHT22;38063;53.210;6.504;2022-10-13T02:38:56;9.30;99.90
52058;DHT22;38063;53.210;6.504;2022-10-13T02:41:21;9.60;99.90
52058;DHT22;38063;53.210;6.504;2022-10-13T02:43:47;9.30;99.90
52058;DHT22;38063;53.210;6.504;2022-10-13T02:46:12;9.30;99.90
52058;DHT22;38063;53.210;6.504;2022-10-13T02:48:38;9.30;99.90
52058;DHT22;38063;53.210;6.504;2022-10-13T02:51:04;9.30;99.90
52058;DHT22;38063;53.210;6.504;2022-10-13T02:53:30;9.30;99.90
52058;DHT22;38063;53.210;6.504;2022-10-13T02:55:56;9.30;99.90
52058;DHT22;38063;53.210;6.504;2022-10-13T02:58:22;9.30;99.90
52058;DHT22;38063;53.210;6.504;2022-10-13T03:00:47;9.50;99.90
52058;DHT22;38063;53.210;6.504;2022-10-13T03:03:13;9.30;99.90
52058;DHT22;38063;53.210;6.504;2022-10-13T03:05:39;9.30;99.90
52058;DHT22;38063;53.210;6.504;2022-10-13T03:08:04;9.30;99.90
52058;DHT22;38063;53.210;6.504;2022-10-13T03:10:30;9.30;99.90
52058;DHT22;38063;53.210;6.504;2022-10-13T03:12:56;9.30;99.90
52058;DHT22;38063;53.210;6.504;2022-10-13T03:15:22;9.30;99.90
52058;DHT22;38063;53.210;6.504;2022-10-13T03:17:48;9.30;99.90
52058;DHT22;38063;53.210;6.504;2022-10-13T03:20:14;9.30;99.90
52058;DHT22;38063;53.210;6.504;2022-10-13T03:22:39;9.30;99.90
52058;DHT22;38063;53.210;6.504;2022-10-13T03:25:05;9.30;99.90
52058;DHT22;38063;53.210;6.504;2022-10-13T03:27:31;9.30;99.90
52058;DHT22;38063;53.210;6.504;2022-10-13T03:29:57;9.30;99.90
52058;DHT22;38063;53.210;6.504;2022-10-13T03:32:22;9.30;99.90
52058;DHT22;38063;53.210;6.504;2022-10-13T03:34:49;9.40;99.90
52058;DHT22;38063;53.210;6.504;2022-10-13T03:37:15;9.30;99.90
52058;DHT22;38063;53.210;6.504;2022-10-13T03:39:41;9.40;99.90
52058;DHT22;38063;53.210;6.504;2022-10-13T03:42:06;9.40;99.90
52058;DHT22;38063;53.210;6.504;2022-10-13T03:44:32;9.40;99.90
52058;DHT22;38063;53.210;6.504;2022-10-13T03:46:58;9.40;99.90
52058;DHT22;38063;53.210;6.504;2022-10-13T03:49:23;9.40;99.90
52058;DHT22;38063;53.210;6.504;2022-10-13T03:51:49;9.40;99.90
52058;DHT22;38063;53.210;6.504;2022-10-13T03:54:14;9.40;99.90
52058;DHT22;38063;53.210;6.504;2022-10-13T03:56:40;9.60;99.90
52058;DHT22;38063;53.210;6.504;2022-10-13T03:59:09;9.50;99.90
52058;DHT22;38063;53.210;6.504;2022-10-13T04:01:34;9.50;99.90
52058;DHT22;38063;53.210;6.504;2022-10-13T04:04:00;9.50;99.90
52058;DHT22;38063;53.210;6.504;2022-10-13T04:06:30;9.50;99.90
52058;DHT22;38063;53.210;6.504;2022-10-13T04:08:56;9.50;99.90
52058;DHT22;38063;53.210;6.504;2022-10-13T04:11:22;9.50;99.90
52058;DHT22;38063;53.210;6.504;2022-10-13T04:13:48;9.50;99.90
52058;DHT22;38063;53.210;6.504;2022-10-13T04:16:15;9.80;99.90
52058;DHT22;38063;53.210;6.504;2022-10-13T04:18:42;9.50;99.90
52058;DHT22;38063;53.210;6.504;2022-10-13T04:21:10;9.60;99.90
52058;DHT22;38063;53.210;6.504;2022-10-13T04:23:36;9.50;99.90
52058;DHT22;38063;53.210;6.504;2022-10-13T04:26:03;9.50;99.90
52058;DHT22;38063;53.210;6.504;2022-10-13T04:28:29;9.50;99.90
52058;DHT22;38063;53.210;6.504;2022-10-13T04:30:55;9.50;99.90
52058;DHT22;38063;53.210;6.504;2022-10-13T04:33:22;9.70;99.90
52058;DHT22;38063;53.210;6.504;2022-10-13T04:35:48;9.50;99.90
52058;DHT22;38063;53.210;6.504;2022-10-13T04:38:14;9.50;99.90
52058;DHT22;38063;53.210;6.504;2022-10-13T04:40:40;9.50;99.90
52058;DHT22;38063;53.210;6.504;2022-10-13T04:43:05;9.50;99.90
52058;DHT22;38063;53.210;6.504;2022-10-13T04:45:31;9.50;99.90
52058;DHT22;38063;53.210;6.504;2022-10-13T04:47:56;9.50;99.90
52058;DHT22;38063;53.210;6.504;2022-10-13T04:50:22;9.60;99.90
52058;DHT22;38063;53.210;6.504;2022-10-13T04:52:48;9.60;99.90
52058;DHT22;38063;53.210;6.504;2022-10-13T04:55:14;9.50;99.90
52058;DHT22;38063;53.210;6.504;2022-10-13T04:57:39;9.50;99.90
52058;DHT22;38063;53.210;6.504;2022-10-13T05:00:05;9.60;99.90
52058;DHT22;38063;53.210;6.504;2022-10-13T05:02:34;9.60;99.90
52058;DHT22;38063;53.210;6.504;2022-10-13T05:05:00;9.60;99.90
52058;DHT22;38063;53.210;6.504;2022-10-13T05:07:25;9.70;99.90
52058;DHT22;38063;53.210;6.504;2022-10-13T05:09:51;9.60;99.90
52058;DHT22;38063;53.210;6.504;2022-10-13T05:12:16;9.60;99.90
52058;DHT22;38063;53.210;6.504;2022-10-13T05:14:42;9.60;99.90
52058;DHT22;38063;53.210;6.504;2022-10-13T05:17:08;9.80;99.90
52058;DHT22;38063;53.210;6.504;2022-10-13T05:19:33;9.60;99.90
52058;DHT22;38063;53.210;6.504;2022-10-13T05:21:59;9.60;99.90
52058;DHT22;38063;53.210;6.504;2022-10-13T05:24:25;9.60;99.90
52058;DHT22;38063;53.210;6.504;2022-10-13T05:27:06;9.60;99.90
52058;DHT22;38063;53.210;6.504;2022-10-13T05:29:33;9.60;99.90
52058;DHT22;38063;53.210;6.504;2022-10-13T05:31:58;9.90;99.90
52058;DHT22;38063;53.210;6.504;2022-10-13T05:34:24;9.70;99.90
52058;DHT22;38063;53.210;6.504;2022-10-13T05:36:50;9.60;99.90
52058;DHT22;38063;53.210;6.504;2022-10-13T05:39:15;9.60;99.90
52058;DHT22;38063;53.210;6.504;2022-10-13T05:41:41;9.90;99.90
52058;DHT22;38063;53.210;6.504;2022-10-13T05:44:08;9.60;99.90
52058;DHT22;38063;53.210;6.504;2022-10-13T05:46:34;9.60;99.90
52058;DHT22;38063;53.210;6.504;2022-10-13T05:49:00;9.60;99.90
52058;DHT22;38063;53.210;6.504;2022-10-13T05:51:31;9.70;99.90
52058;DHT22;38063;53.210;6.504;2022-10-13T05:54:05;9.60;99.90
52058;DHT22;38063;53.210;6.504;2022-10-13T05:56:43;9.60;99.90
52058;DHT22;38063;53.210;6.504;2022-10-13T05:59:13;9.60;99.90
52058;DHT22;38063;53.210;6.504;2022-10-13T06:01:41;9.70;99.90
52058;DHT22;38063;53.210;6.504;2022-10-13T06:04:12;9.70;99.90
52058;DHT22;38063;53.210;6.504;2022-10-13T06:06:38;10.10;99.90
52058;DHT22;38063;53.210;6.504;2022-10-13T06:09:04;9.70;99.90
52058;DHT22;38063;53.210;6.504;2022-10-13T06:11:30;10.10;99.90
52058;DHT22;38063;53.210;6.504;2022-10-13T06:13:56;9.70;99.90
52058;DHT22;38063;53.210;6.504;2022-10-13T06:16:21;9.70;99.90
52058;DHT22;38063;53.210;6.504;2022-10-13T06:18:47;9.70;99.90
52058;DHT22;38063;53.210;6.504;2022-10-13T06:21:12;9.70;99.90
52058;DHT22;38063;53.210;6.504;2022-10-13T06:23:38;9.70;99.90
52058;DHT22;38063;53.210;6.504;2022-10-13T06:26:06;9.70;99.90
52058;DHT22;38063;53.210;6.504;2022-10-13T06:28:32;9.80;99.90
52058;DHT22;38063;53.210;6.504;2022-10-13T06:30:57;9.80;99.90
52058;DHT22;38063;53.210;6.504;2022-10-13T06:33:24;9.80;99.90
52058;DHT22;38063;53.210;6.504;2022-10-13T06:35:52;9.80;99.90
52058;DHT22;38063;53.210;6.504;2022-10-13T06:38:18;9.80;99.90
52058;DHT22;38063;53.210;6.504;2022-10-13T06:40:44;9.90;99.90
52058;DHT22;38063;53.210;6.504;2022-10-13T06:43:10;9.90;99.90
52058;DHT22;38063;53.210;6.504;2022-10-13T06:45:36;9.90;99.90
52058;DHT22;38063;53.210;6.504;2022-10-13T06:48:02;9.90;99.90
52058;DHT22;38063;53.210;6.504;2022-10-13T06:50:27;10.00;99.90
52058;DHT22;38063;53.210;6.504;2022-10-13T06:52:56;10.00;99.90
52058;DHT22;38063;53.210;6.504;2022-10-13T06:55:22;10.00;99.90
52058;DHT22;38063;53.210;6.504;2022-10-13T06:57:48;10.10;99.90
52058;DHT22;38063;53.210;6.504;2022-10-13T07:00:14;10.10;99.90
52058;DHT22;38063;53.210;6.504;2022-10-13T07:02:39;10.10;99.90
52058;DHT22;38063;53.210;6.504;2022-10-13T07:05:05;10.40;99.90
52058;DHT22;38063;53.210;6.504;2022-10-13T07:07:31;10.20;99.90
52058;DHT22;38063;53.210;6.504;2022-10-13T07:09:57;10.20;99.90
52058;DHT22;38063;53.210;6.504;2022-10-13T07:12:22;10.20;99.90
52058;DHT22;38063;53.210;6.504;2022-10-13T07:14:48;10.30;99.90
52058;DHT22;38063;53.210;6.504;2022-10-13T07:17:14;10.30;99.90
52058;DHT22;38063;53.210;6.504;2022-10-13T07:19:39;10.40;99.90
52058;DHT22;38063;53.210;6.504;2022-10-13T07:22:05;10.40;99.90
52058;DHT22;38063;53.210;6.504;2022-10-13T07:24:31;10.50;99.90
52058;DHT22;38063;53.210;6.504;2022-10-13T07:26:56;10.60;99.90
52058;DHT22;38063;53.210;6.504;2022-10-13T07:29:22;10.60;99.90
52058;DHT22;38063;53.210;6.504;2022-10-13T07:31:48;10.70;99.90
52058;DHT22;38063;53.210;6.504;2022-10-13T07:34:14;10.80;99.90
52058;DHT22;38063;53.210;6.504;2022-10-13T07:36:40;10.80;99.90
52058;DHT22;38063;53.210;6.504;2022-10-13T07:39:07;10.90;99.90
52058;DHT22;38063;53.210;6.504;2022-10-13T07:41:33;10.90;99.90
52058;DHT22;38063;53.210;6.504;2022-10-13T07:43:58;11.00;99.90
52058;DHT22;38063;53.210;6.504;2022-10-13T07:46:24;11.00;99.90
52058;DHT22;38063;53.210;6.504;2022-10-13T07:48:52;11.00;99.90
52058;DHT22;38063;53.210;6.504;2022-10-13T07:51:19;11.10;99.90
52058;DHT22;38063;53.210;6.504;2022-10-13T07:53:45;11.10;99.90
52058;DHT22;38063;53.210;6.504;2022-10-13T07:56:12;11.10;99.90
52058;DHT22;38063;53.210;6.504;2022-10-13T07:58:44;11.10;99.90
52058;DHT22;38063;53.210;6.504;2022-10-13T08:01:10;11.20;99.90
52058;DHT22;38063;53.210;6.504;2022-10-13T08:03:36;11.30;99.90
52058;DHT22;38063;53.210;6.504;2022-10-13T08:06:04;11.40;99.90
52058;DHT22;38063;53.210;6.504;2022-10-13T08:08:31;11.50;99.90
52058;DHT22;38063;53.210;6.504;2022-10-13T08:11:08;11.50;99.90
52058;DHT22;38063;53.210;6.504;2022-10-13T08:13:35;11.70;99.90
52058;DHT22;38063;53.210;6.504;2022-10-13T08:16:01;11.70;99.90
52058;DHT22;38063;53.210;6.504;2022-10-13T08:18:27;11.70;99.90
52058;DHT22;38063;53.210;6.504;2022-10-13T08:20:53;11.80;99.90
52058;DHT22;38063;53.210;6.504;2022-10-13T08:23:19;11.80;99.90
52058;DHT22;38063;53.210;6.504;2022-10-13T08:25:45;11.80;99.90
52058;DHT22;38063;53.210;6.504;2022-10-13T08:28:20;11.80;99.90
52058;DHT22;38063;53.210;6.504;2022-10-13T08:30:46;11.80;99.90
52058;DHT22;38063;53.210;6.504;2022-10-13T08:33:12;11.80;99.90
52058;DHT22;38063;53.210;6.504;2022-10-13T08:35:38;11.80;99.90
52058;DHT22;38063;53.210;6.504;2022-10-13T08:38:04;11.80;99.90
52058;DHT22;38063;53.210;6.504;2022-10-13T08:40:30;11.80;99.90
52058;DHT22;38063;53.210;6.504;2022-10-13T08:42:56;11.90;99.90
52058;DHT22;38063;53.210;6.504;2022-10-13T08:45:28;11.90;99.90
52058;DHT22;38063;53.210;6.504;2022-10-13T08:48:14;11.90;99.90
52058;DHT22;38063;53.210;6.504;2022-10-13T08:50:44;11.90;99.90
52058;DHT22;38063;53.210;6.504;2022-10-13T08:56:41;11.90;99.90
52058;DHT22;38063;53.210;6.504;2022-10-13T08:58:49;11.90;99.90
52058;DHT22;38063;53.210;6.504;2022-10-13T09:01:22;11.90;99.90
52058;DHT22;38063;53.210;6.504;2022-10-13T09:06:39;12.00;99.90
52058;DHT22;38063;53.210;6.504;2022-10-13T09:09:09;12.00;99.90
52058;DHT22;38063;53.210;6.504;2022-10-13T09:11:41;12.00;99.90
52058;DHT22;38063;53.210;6.504;2022-10-13T09:14:18;12.10;99.90
52058;DHT22;38063;53.210;6.504;2022-10-13T09:16:44;12.10;99.90
52058;DHT22;38063;53.210;6.504;2022-10-13T09:19:18;12.10;99.90
52058;DHT22;38063;53.210;6.504;2022-10-13T09:21:46;12.10;99.90
52058;DHT22;38063;53.210;6.504;2022-10-13T09:24:14;12.20;99.90
52058;DHT22;38063;53.210;6.504;2022-10-13T09:26:40;11.90;99.90
52058;DHT22;38063;53.210;6.504;2022-10-13T09:29:23;12.30;99.90
52058;DHT22;38063;53.210;6.504;2022-10-13T09:31:50;12.30;99.90
52058;DHT22;38063;53.210;6.504;2022-10-13T09:37:02;12.30;99.90
52058;DHT22;38063;53.210;6.504;2022-10-13T09:39:29;12.40;99.90
52058;DHT22;38063;53.210;6.504;2022-10-13T09:42:28;12.40;99.90
52058;DHT22;38063;53.210;6.504;2022-10-13T09:45:12;12.40;99.90
52058;DHT22;38063;53.210;6.504;2022-10-13T09:47:39;12.50;99.90
52058;DHT22;38063;53.210;6.504;2022-10-13T09:52:40;12.50;99.90
52058;DHT22;38063;53.210;6.504;2022-10-13T09:55:32;12.50;99.90
52058;DHT22;38063;53.210;6.504;2022-10-13T09:58:10;12.50;99.90
52058;DHT22;38063;53.210;6.504;2022-10-13T10:00:37;12.50;99.90
52058;DHT22;38063;53.210;6.504;2022-10-13T10:03:27;12.60;99.90
52058;DHT22;38063;53.210;6.504;2022-10-13T10:05:55;12.70;99.90
52058;DHT22;38063;53.210;6.504;2022-10-13T10:10:50;12.70;99.90
52058;DHT22;38063;53.210;6.504;2022-10-13T10:13:15;12.80;99.90
52058;DHT22;38063;53.210;6.504;2022-10-13T10:18:47;12.90;99.90
52058;DHT22;38063;53.210;6.504;2022-10-13T10:21:43;12.90;99.90
52058;DHT22;38063;53.210;6.504;2022-10-13T10:24:20;13.00;99.90
52058;DHT22;38063;53.210;6.504;2022-10-13T10:27:02;13.00;99.90
52058;DHT22;38063;53.210;6.504;2022-10-13T10:29:59;13.00;99.90
52058;DHT22;38063;53.210;6.504;2022-10-13T10:37:49;13.10;99.90
52058;DHT22;38063;53.210;6.504;2022-10-13T10:45:50;13.10;99.90
52058;DHT22;38063;53.210;6.504;2022-10-13T10:48:32;13.10;99.90
52058;DHT22;38063;53.210;6.504;2022-10-13T10:51:00;13.10;99.90
52058;DHT22;38063;53.210;6.504;2022-10-13T10:53:54;13.10;99.90
52058;DHT22;38063;53.210;6.504;2022-10-13T10:56:32;13.10;99.90
52058;DHT22;38063;53.210;6.504;2022-10-13T11:04:46;13.10;99.90
52058;DHT22;38063;53.210;6.504;2022-10-13T11:14:47;13.20;99.90
52058;DHT22;38063;53.210;6.504;2022-10-13T11:17:30;13.20;99.90
52058;DHT22;38063;53.210;6.504;2022-10-13T11:19:57;13.20;99.90
52058;DHT22;38063;53.210;6.504;2022-10-13T11:22:28;13.50;99.90
52058;DHT22;38063;53.210;6.504;2022-10-13T11:25:00;13.30;99.90
52058;DHT22;38063;53.210;6.504;2022-10-13T11:29:58;13.50;99.90
52058;DHT22;38063;53.210;6.504;2022-10-13T11:52:00;13.60;99.90
52058;DHT22;38063;53.210;6.504;2022-10-13T11:54:15;13.70;99.90
52058;DHT22;38063;53.210;6.504;2022-10-13T11:59:22;13.70;99.90
52058;DHT22;38063;53.210;6.504;2022-10-13T12:04:25;13.70;99.90
52058;DHT22;38063;53.210;6.504;2022-10-13T12:06:56;13.70;99.90
52058;DHT22;38063;53.210;6.504;2022-10-13T12:09:22;13.70;99.90
52058;DHT22;38063;53.210;6.504;2022-10-13T12:12:00;13.80;99.90
52058;DHT22;38063;53.210;6.504;2022-10-13T12:14:38;13.90;99.90
52058;DHT22;38063;53.210;6.504;2022-10-13T12:19:43;14.10;99.90
52058;DHT22;38063;53.210;6.504;2022-10-13T12:22:12;14.10;99.90
52058;DHT22;38063;53.210;6.504;2022-10-13T12:24:37;14.10;99.90
52058;DHT22;38063;53.210;6.504;2022-10-13T12:27:18;14.10;99.90
52058;DHT22;38063;53.210;6.504;2022-10-13T12:29:45;14.10;99.90
52058;DHT22;38063;53.210;6.504;2022-10-13T12:32:30;14.20;99.90
52058;DHT22;38063;53.210;6.504;2022-10-13T12:35:11;14.20;99.90
52058;DHT22;38063;53.210;6.504;2022-10-13T12:37:40;14.20;99.90
52058;DHT22;38063;53.210;6.504;2022-10-13T12:40:08;14.20;99.90
52058;DHT22;38063;53.210;6.504;2022-10-13T12:42:38;14.30;99.90
52058;DHT22;38063;53.210;6.504;2022-10-13T12:45:04;14.30;99.90
52058;DHT22;38063;53.210;6.504;2022-10-13T12:47:38;14.30;99.90
52058;DHT22;38063;53.210;6.504;2022-10-13T12:50:31;14.30;99.90
52058;DHT22;38063;53.210;6.504;2022-10-13T12:53:20;14.30;99.90
52058;DHT22;38063;53.210;6.504;2022-10-13T12:55:54;14.30;99.90
52058;DHT22;38063;53.210;6.504;2022-10-13T12:58:29;14.30;99.90
52058;DHT22;38063;53.210;6.504;2022-10-13T13:01:33;14.30;99.90
52058;DHT22;38063;53.210;6.504;2022-10-13T13:04:41;14.30;99.90
52058;DHT22;38063;53.210;6.504;2022-10-13T13:12:28;14.30;99.90
52058;DHT22;38063;53.210;6.504;2022-10-13T13:14:55;14.40;99.90
52058;DHT22;38063;53.210;6.504;2022-10-13T13:17:27;14.40;99.90
52058;DHT22;38063;53.210;6.504;2022-10-13T13:19:53;14.30;99.90
52058;DHT22;38063;53.210;6.504;2022-10-13T13:22:20;14.40;99.90
52058;DHT22;38063;53.210;6.504;2022-10-13T13:24:46;14.40;99.90
52058;DHT22;38063;53.210;6.504;2022-10-13T13:27:26;14.40;99.90
52058;DHT22;38063;53.210;6.504;2022-10-13T13:29:55;14.40;99.90
52058;DHT22;38063;53.210;6.504;2022-10-13T13:32:23;14.50;99.90
52058;DHT22;38063;53.210;6.504;2022-10-13T13:34:49;14.50;99.90
52058;DHT22;38063;53.210;6.504;2022-10-13T13:37:35;14.50;99.90
52058;DHT22;38063;53.210;6.504;2022-10-13T13:40:02;14.60;99.90
52058;DHT22;38063;53.210;6.504;2022-10-13T13:42:28;14.50;99.90
52058;DHT22;38063;53.210;6.504;2022-10-13T13:44:53;14.60;99.90
52058;DHT22;38063;53.210;6.504;2022-10-13T13:47:21;14.60;99.90
52058;DHT22;38063;53.210;6.504;2022-10-13T13:49:49;14.60;99.90
52058;DHT22;38063;53.210;6.504;2022-10-13T13:52:15;14.70;99.90
52058;DHT22;38063;53.210;6.504;2022-10-13T13:54:41;14.60;99.90
52058;DHT22;38063;53.210;6.504;2022-10-13T13:57:08;14.60;99.90
52058;DHT22;38063;53.210;6.504;2022-10-13T13:59:34;14.60;99.90
52058;DHT22;38063;53.210;6.504;2022-10-13T14:02:00;14.60;99.90
52058;DHT22;38063;53.210;6.504;2022-10-13T14:04:26;14.60;99.90
52058;DHT22;38063;53.210;6.504;2022-10-13T14:06:52;14.60;99.90
52058;DHT22;38063;53.210;6.504;2022-10-13T14:09:18;14.60;99.90
52058;DHT22;38063;53.210;6.504;2022-10-13T14:11:43;14.50;99.90
52058;DHT22;38063;53.210;6.504;2022-10-13T14:14:09;14.50;99.90
52058;DHT22;38063;53.210;6.504;2022-10-13T14:16:34;14.50;99.90
52058;DHT22;38063;53.210;6.504;2022-10-13T14:19:00;14.40;99.90
52058;DHT22;38063;53.210;6.504;2022-10-13T14:21:26;14.40;99.90
52058;DHT22;38063;53.210;6.504;2022-10-13T14:23:51;14.40;99.90
52058;DHT22;38063;53.210;6.504;2022-10-13T14:26:17;14.40;99.90
52058;DHT22;38063;53.210;6.504;2022-10-13T14:28:43;14.50;99.90
52058;DHT22;38063;53.210;6.504;2022-10-13T14:31:09;14.40;99.90
52058;DHT22;38063;53.210;6.504;2022-10-13T14:33:36;14.40;99.90
52058;DHT22;38063;53.210;6.504;2022-10-13T14:36:05;14.40;99.90
52058;DHT22;38063;53.210;6.504;2022-10-13T14:38:32;14.40;99.90
52058;DHT22;38063;53.210;6.504;2022-10-13T14:40:59;14.40;99.90
52058;DHT22;38063;53.210;6.504;2022-10-13T14:43:25;14.40;99.90
52058;DHT22;38063;53.210;6.504;2022-10-13T14:45:50;14.40;99.90
52058;DHT22;38063;53.210;6.504;2022-10-13T14:48:16;14.40;99.90
52058;DHT22;38063;53.210;6.504;2022-10-13T14:50:42;14.40;99.90
52058;DHT22;38063;53.210;6.504;2022-10-13T14:53:07;14.40;99.90
52058;DHT22;38063;53.210;6.504;2022-10-13T14:55:41;14.30;99.90
52058;DHT22;38063;53.210;6.504;2022-10-13T14:58:06;14.30;99.90
52058;DHT22;38063;53.210;6.504;2022-10-13T15:00:32;14.30;99.90
52058;DHT22;38063;53.210;6.504;2022-10-13T15:02:58;14.30;99.90
52058;DHT22;38063;53.210;6.504;2022-10-13T15:05:23;14.40;99.90
52058;DHT22;38063;53.210;6.504;2022-10-13T15:07:49;14.20;99.90
52058;DHT22;38063;53.210;6.504;2022-10-13T15:10:15;14.20;99.90
52058;DHT22;38063;53.210;6.504;2022-10-13T15:12:40;14.20;99.90
52058;DHT22;38063;53.210;6.504;2022-10-13T15:15:06;14.20;99.90
52058;DHT22;38063;53.210;6.504;2022-10-13T15:17:32;14.20;99.90
52058;DHT22;38063;53.210;6.504;2022-10-13T15:19:58;14.20;99.90
52058;DHT22;38063;53.210;6.504;2022-10-13T15:22:24;14.20;99.90
52058;DHT22;38063;53.210;6.504;2022-10-13T15:24:50;14.20;99.90
52058;DHT22;38063;53.210;6.504;2022-10-13T15:27:15;14.20;99.90
52058;DHT22;38063;53.210;6.504;2022-10-13T15:29:41;14.20;99.90
52058;DHT22;38063;53.210;6.504;2022-10-13T15:32:13;14.20;99.90
52058;DHT22;38063;53.210;6.504;2022-10-13T15:34:42;14.20;99.90
52058;DHT22;38063;53.210;6.504;2022-10-13T15:37:09;14.20;99.90
52058;DHT22;38063;53.210;6.504;2022-10-13T15:39:35;14.20;99.90
52058;DHT22;38063;53.210;6.504;2022-10-13T15:42:02;14.10;99.90
52058;DHT22;38063;53.210;6.504;2022-10-13T15:44:28;14.10;99.90
52058;DHT22;38063;53.210;6.504;2022-10-13T15:46:56;14.10;99.90
52058;DHT22;38063;53.210;6.504;2022-10-13T15:49:22;14.10;99.90
52058;DHT22;38063;53.210;6.504;2022-10-13T15:51:48;14.10;99.90
52058;DHT22;38063;53.210;6.504;2022-10-13T15:54:14;14.20;99.90
52058;DHT22;38063;53.210;6.504;2022-10-13T15:56:39;14.10;99.90
52058;DHT22;38063;53.210;6.504;2022-10-13T15:59:05;14.20;99.90
52058;DHT22;38063;53.210;6.504;2022-10-13T16:01:31;14.10;99.90
52058;DHT22;38063;53.210;6.504;2022-10-13T16:03:57;14.10;99.90
52058;DHT22;38063;53.210;6.504;2022-10-13T16:06:23;14.10;99.90
52058;DHT22;38063;53.210;6.504;2022-10-13T16:08:49;14.10;99.90
52058;DHT22;38063;53.210;6.504;2022-10-13T16:11:16;14.40;99.90
52058;DHT22;38063;53.210;6.504;2022-10-13T16:13:49;14.30;99.90
52058;DHT22;38063;53.210;6.504;2022-10-13T16:16:15;14.00;99.90
52058;DHT22;38063;53.210;6.504;2022-10-13T16:18:41;14.00;99.90
52058;DHT22;38063;53.210;6.504;2022-10-13T16:21:12;14.00;99.90
52058;DHT22;38063;53.210;6.504;2022-10-13T16:23:38;14.00;99.90
52058;DHT22;38063;53.210;6.504;2022-10-13T16:26:05;13.90;99.90
52058;DHT22;38063;53.210;6.504;2022-10-13T16:28:31;13.90;99.90
52058;DHT22;38063;53.210;6.504;2022-10-13T16:31:04;13.90;99.90
52058;DHT22;38063;53.210;6.504;2022-10-13T16:33:33;13.90;99.90
52058;DHT22;38063;53.210;6.504;2022-10-13T16:36:07;13.90;99.90
52058;DHT22;38063;53.210;6.504;2022-10-13T16:38:34;13.90;99.90
52058;DHT22;38063;53.210;6.504;2022-10-13T16:41:04;13.80;99.90
52058;DHT22;38063;53.210;6.504;2022-10-13T16:43:30;13.80;99.90
52058;DHT22;38063;53.210;6.504;2022-10-13T16:45:58;13.80;99.90
52058;DHT22;38063;53.210;6.504;2022-10-13T16:48:23;13.70;99.90
52058;DHT22;38063;53.210;6.504;2022-10-13T16:50:49;13.70;99.90
52058;DHT22;38063;53.210;6.504;2022-10-13T16:53:15;13.60;99.90
52058;DHT22;38063;53.210;6.504;2022-10-13T16:55:41;13.60;99.90
52058;DHT22;38063;53.210;6.504;2022-10-13T16:58:07;13.60;99.90
52058;DHT22;38063;53.210;6.504;2022-10-13T17:00:37;13.50;99.90
52058;DHT22;38063;53.210;6.504;2022-10-13T17:03:03;13.50;99.90
52058;DHT22;38063;53.210;6.504;2022-10-13T17:05:29;13.40;99.90
52058;DHT22;38063;53.210;6.504;2022-10-13T17:07:55;13.40;99.90
52058;DHT22;38063;53.210;6.504;2022-10-13T17:10:20;13.40;99.90
52058;DHT22;38063;53.210;6.504;2022-10-13T17:12:46;13.40;99.90
52058;DHT22;38063;53.210;6.504;2022-10-13T17:15:13;13.40;99.90
52058;DHT22;38063;53.210;6.504;2022-10-13T17:17:38;13.30;99.90
52058;DHT22;38063;53.210;6.504;2022-10-13T17:20:04;13.30;99.90
52058;DHT22;38063;53.210;6.504;2022-10-13T17:22:30;13.30;99.90
52058;DHT22;38063;53.210;6.504;2022-10-13T17:24:57;13.30;99.90